map of ADD home
ADD - Airport
Location
City:  Addis Ababa, Addis Ababa, Ethiopia
Name:Bole International Airport
ICAO:HAAB
IATA:ADD

Details
Type:Airport (Aerodrome, Airfield)
Use:Public/Civil, International (customs port of entry)
Latitude:858'40"N (8.977889)
Longitude:3847'58"E (38.799319)
Datum:WGS 1984
Elevation:7656 ft (2334 m)
Variation:2.32E (WMM2015 magnetic declination)
0.05 annual change
Runways:2
Longest:12467 × 148 ft (3800 × 45 m), paved

Time
Time Zone:UTC+3
Local Time:

Weather
METAR:HAAB 160110Z 30004KT C A V O K 11/00 Q1027
TAF:HAAB 160330Z 1606/1712 16015KT 9999 FEW030 FEW080
BECMG 1609/1612 18018KT FEW030
BECMG 1615/1618 16016KT

Related Locations
Nearby:
Farthest:NHV: 12381 mi / 19925 km
Nuku Hiva, Marquesas Islands, PF

Find:

   beyond  
but within

Other Information
Maps:
NOTAMs:
Links:
Sources:

  
  • flag of Ethiopia
  

Sectional Chart

Flight Planning
at skyvector.com

Satellite Image

Google Maps Satellite view

 

Copyright © 2004-2019 Karl L. Swartz. All rights reserved.
The Great Circle Mapper name and logo are trademarks of the Great Circle Mapper.
All other trademarks mentioned herein belong to their respective owners.
Please see credits for attibutions and further copyright information.

  Follow gcmap on Facebook Follow gcmap on Twitter Follow gcmap on Google+ GCmap on LinkedIn

hCard Microformat

Geo Microformat